createdAt,value
2022-09-21T00:00:37.136Z,5.13
2022-09-21T00:05:38.526Z,8.02
2022-09-21T00:10:40.769Z,6.60
2022-09-21T00:15:42.181Z,9.07
2022-09-21T00:20:43.674Z,7.88
2022-09-21T00:25:45.114Z,8.10
2022-09-21T00:30:51.640Z,7.47
2022-09-21T00:35:53.043Z,6.15
2022-09-21T00:40:54.484Z,5.18
2022-09-21T00:46:05.195Z,8.30
2022-09-21T00:51:08.529Z,8.23
2022-09-21T00:56:12.224Z,5.90
2022-09-21T01:01:18.606Z,6.95
2022-09-21T01:06:21.425Z,7.00
2022-09-21T01:11:56.919Z,4.95
2022-09-21T01:17:09.142Z,6.60
2022-09-21T01:23:04.890Z,4.22
2022-09-21T01:28:18.509Z,6.97
2022-09-21T01:33:27.468Z,5.30
2022-09-21T01:38:35.699Z,4.32
2022-09-21T01:43:42.259Z,4.82
2022-09-21T01:48:48.190Z,4.18
2022-09-21T01:53:56.229Z,4.32
2022-09-21T01:59:06.378Z,4.70
2022-09-21T02:04:13.081Z,4.80
2022-09-21T02:09:14.576Z,3.88
2022-09-21T02:14:20.335Z,3.10
2022-09-21T02:19:42.042Z,5.32
2022-09-21T02:24:48.001Z,5.60
2022-09-21T02:30:13.001Z,4.60
2022-09-21T02:35:28.358Z,6.15
2022-09-21T02:40:48.043Z,6.57
2022-09-21T02:45:59.610Z,4.60
2022-09-21T02:51:10.062Z,6.40
2022-09-21T02:56:13.192Z,4.63
2022-09-21T03:01:16.279Z,5.57
2022-09-21T03:06:17.728Z,8.15
2022-09-21T03:11:20.561Z,5.32
2022-09-21T03:16:22.836Z,8.63
2022-09-21T03:21:24.347Z,5.82
2022-09-21T03:26:25.855Z,5.68
2022-09-21T03:31:27.295Z,7.22
2022-09-21T03:36:28.690Z,8.43
2022-09-21T03:41:30.134Z,8.65
2022-09-21T03:46:35.219Z,8.38
2022-09-21T03:51:36.675Z,9.55
2022-09-21T03:56:38.319Z,7.88
2022-09-21T04:01:39.809Z,6.97
2022-09-21T04:06:41.268Z,9.38
2022-09-21T04:11:44.801Z,8.60
2022-09-21T04:16:46.391Z,11.50
2022-09-21T04:21:48.270Z,9.50
2022-09-21T04:26:49.823Z,9.93
2022-09-21T04:31:51.246Z,10.68
2022-09-21T04:36:54.727Z,12.30
2022-09-21T04:41:56.856Z,8.68
2022-09-21T04:46:58.600Z,11.23
2022-09-21T04:52:00.158Z,10.65
2022-09-21T04:57:01.606Z,11.82
2022-09-21T05:02:03.027Z,10.85
2022-09-21T05:07:04.498Z,12.02
2022-09-21T05:12:06.282Z,9.02
2022-09-21T05:17:07.740Z,8.98
2022-09-21T05:22:09.365Z,8.35
2022-09-21T05:27:10.801Z,10.43
2022-09-21T05:32:24.666Z,11.65
2022-09-21T05:38:01.330Z,9.02
2022-09-21T05:43:03.101Z,6.93
2022-09-21T05:48:13.712Z,8.20
2022-09-21T05:53:30.991Z,8.73
2022-09-21T05:58:57.171Z,9.35
2022-09-21T06:03:59.906Z,9.80
2022-09-21T06:09:01.365Z,11.20
2022-09-21T06:14:03.051Z,12.07
2022-09-21T06:19:04.534Z,10.57
2022-09-21T06:24:06.018Z,10.23
2022-09-21T06:29:07.649Z,10.20
2022-09-21T06:34:09.080Z,11.50
2022-09-21T06:39:10.485Z,9.85
2022-09-21T06:44:11.888Z,11.32
2022-09-21T06:49:13.323Z,9.38
2022-09-21T06:54:14.751Z,10.85
2022-09-21T06:59:16.152Z,9.57
2022-09-21T07:04:20.858Z,9.13
2022-09-21T07:14:46.297Z,9.73
2022-09-21T07:19:47.914Z,8.40
2022-09-21T07:24:49.428Z,10.50
2022-09-21T07:29:51.202Z,8.93
2022-09-21T07:34:56.387Z,10.23
2022-09-21T07:39:57.942Z,10.00
2022-09-21T07:45:03.841Z,12.48
2022-09-21T07:50:06.319Z,9.85
2022-09-21T07:55:08.420Z,10.73
2022-09-21T08:00:10.456Z,8.85
2022-09-21T08:05:11.933Z,8.57
2022-09-21T08:10:13.357Z,13.27
2022-09-21T08:15:37.056Z,11.60
2022-09-21T08:20:36.195Z,9.68
2022-09-21T08:25:37.680Z,9.02
2022-09-21T08:30:39.125Z,9.57
2022-09-21T08:35:40.552Z,8.15
2022-09-21T08:40:42.138Z,10.45
2022-09-21T08:45:46.012Z,9.98
2022-09-21T08:50:54.050Z,10.00
2022-09-21T08:55:57.268Z,8.57
2022-09-21T09:01:08.053Z,8.60
2022-09-21T09:06:36.304Z,8.35
2022-09-21T09:11:52.685Z,8.33
2022-09-21T09:17:07.294Z,8.45
2022-09-21T09:22:14.850Z,8.07
2022-09-21T09:27:32.562Z,7.45
2022-09-21T09:32:41.173Z,7.50
2022-09-21T09:37:44.807Z,6.75
2022-09-21T09:43:07.018Z,7.60
2022-09-21T09:48:54.484Z,7.43
2022-09-21T09:54:00.582Z,5.80
2022-09-21T09:59:08.261Z,5.57
2022-09-21T10:04:15.150Z,5.15
2022-09-21T10:09:27.499Z,5.82
2022-09-21T10:14:34.289Z,4.07
2022-09-21T10:19:37.830Z,4.32
2022-09-21T10:24:40.834Z,2.75
2022-09-21T10:29:46.145Z,5.88
2022-09-21T10:35:10.265Z,2.92
2022-09-21T10:40:17.465Z,4.18
2022-09-21T10:45:23.092Z,2.85
2022-09-21T10:50:37.014Z,3.88
2022-09-21T10:56:14.236Z,3.63
2022-09-21T11:01:23.713Z,5.60
2022-09-21T11:06:30.540Z,4.03
2022-09-21T11:11:50.207Z,4.32
2022-09-21T11:16:58.087Z,2.50
2022-09-21T11:22:02.556Z,4.60
2022-09-21T11:27:12.896Z,2.92
2022-09-21T11:32:34.012Z,4.10
2022-09-21T11:38:05.761Z,2.42
2022-09-21T11:43:27.473Z,2.50
2022-09-21T11:49:06.369Z,2.83
2022-09-21T12:00:01.313Z,3.80
2022-09-21T12:05:13.005Z,2.50
2022-09-21T12:10:37.400Z,2.42
2022-09-21T12:16:11.635Z,4.03
2022-09-21T12:21:21.982Z,2.20
2022-09-21T12:26:29.732Z,1.77
2022-09-21T12:32:03.536Z,2.08
2022-09-21T12:37:15.163Z,2.85
2022-09-21T12:42:33.572Z,1.52
2022-09-21T12:47:56.804Z,3.58
2022-09-21T12:52:59.094Z,3.47
2022-09-21T12:58:16.307Z,2.42
2022-09-21T13:03:52.538Z,1.50
2022-09-21T13:08:54.408Z,1.73
2022-09-21T13:14:02.587Z,2.80
2022-09-21T13:19:13.033Z,1.77
2022-09-21T13:24:30.347Z,4.55
2022-09-21T13:29:34.961Z,1.88
2022-09-21T13:34:41.369Z,4.03
2022-09-21T13:39:57.930Z,3.53
2022-09-21T13:45:24.122Z,2.33
2022-09-21T13:50:37.113Z,1.88
2022-09-21T13:55:50.619Z,5.18
2022-09-21T14:01:09.945Z,2.45
2022-09-21T14:06:27.216Z,1.73
2022-09-21T14:11:29.098Z,1.60
2022-09-21T14:16:39.954Z,2.08
2022-09-21T14:22:04.184Z,1.60
2022-09-21T14:27:18.998Z,2.10
2022-09-21T14:32:24.897Z,1.73
2022-09-21T14:37:28.083Z,2.00
2022-09-21T14:42:31.845Z,1.60
2022-09-21T14:47:56.323Z,6.13
2022-09-21T14:53:29.053Z,1.63
2022-09-21T14:58:52.283Z,4.07
2022-09-21T15:04:21.864Z,1.90
2022-09-21T15:09:48.087Z,4.28
2022-09-21T15:15:20.173Z,2.60
2022-09-21T15:20:25.901Z,2.40
2022-09-21T15:25:32.197Z,2.60
2022-09-21T15:30:44.015Z,1.63
2022-09-21T15:35:47.218Z,2.45
2022-09-21T15:40:50.837Z,2.25
2022-09-21T15:45:59.213Z,3.28
2022-09-21T15:51:24.659Z,2.50
2022-09-21T15:56:28.724Z,2.05
2022-09-21T16:01:31.576Z,2.30
2022-09-21T16:06:38.815Z,1.88
2022-09-21T16:11:41.303Z,2.30
2022-09-21T16:17:13.570Z,2.83
2022-09-21T16:22:19.069Z,9.43
2022-09-21T16:27:23.988Z,3.70
2022-09-21T16:32:32.983Z,2.60
2022-09-21T16:37:37.454Z,1.45
2022-09-21T16:42:39.694Z,5.28
2022-09-21T16:47:41.102Z,3.25
2022-09-21T16:52:48.449Z,2.95
2022-09-21T16:57:49.993Z,1.50
2022-09-21T17:02:51.440Z,1.88
2022-09-21T17:07:58.375Z,1.70
2022-09-21T17:12:59.894Z,1.90
2022-09-21T17:18:02.170Z,2.55
2022-09-21T17:23:04.255Z,2.75
2022-09-21T17:28:23.353Z,2.95
2022-09-21T17:38:26.768Z,2.22
2022-09-21T17:43:32.080Z,4.13
2022-09-21T17:48:34.421Z,4.78
2022-09-21T17:53:40.339Z,3.97
2022-09-21T17:58:48.770Z,2.47
2022-09-21T18:03:50.947Z,5.27
2022-09-21T18:08:53.822Z,4.40
2022-09-21T18:14:07.442Z,8.25
2022-09-21T18:19:32.119Z,2.78
2022-09-21T18:24:33.739Z,8.38
2022-09-21T18:29:40.052Z,3.45
2022-09-21T18:35:05.651Z,6.32
2022-09-21T18:40:21.888Z,5.85
2022-09-21T18:45:36.146Z,7.93
2022-09-21T18:50:56.452Z,6.35
2022-09-21T18:55:58.123Z,8.25
2022-09-21T19:01:00.321Z,6.40
2022-09-21T19:06:14.886Z,7.05
2022-09-21T19:11:34.758Z,8.05
2022-09-21T19:16:54.759Z,7.07
2022-09-21T19:22:13.824Z,9.73
2022-09-21T19:27:43.168Z,15.02
2022-09-21T19:32:50.988Z,10.13
2022-09-21T19:37:57.572Z,9.45
2022-09-21T19:43:14.238Z,7.32
2022-09-21T19:48:16.711Z,8.50
2022-09-21T19:53:41.308Z,7.43
2022-09-21T19:59:01.740Z,6.65
2022-09-21T20:04:06.301Z,7.72
2022-09-21T20:09:17.131Z,9.70
2022-09-21T20:14:42.528Z,9.55
2022-09-21T20:19:53.047Z,4.88
2022-09-21T20:25:23.770Z,5.82
2022-09-21T20:30:28.420Z,6.65
2022-09-21T20:35:30.789Z,4.80
2022-09-21T20:40:32.825Z,4.68
2022-09-21T20:45:35.494Z,5.45
2022-09-21T20:50:37.398Z,8.85
2022-09-21T20:55:39.881Z,4.70
2022-09-21T21:00:41.302Z,4.63
2022-09-21T21:05:42.755Z,4.03
2022-09-21T21:10:46.528Z,5.10
2022-09-21T21:15:52.787Z,6.07
2022-09-21T21:20:54.215Z,4.90
2022-09-21T21:25:55.608Z,5.25
2022-09-21T21:30:57.013Z,4.80
2022-09-21T21:36:04.274Z,8.18
2022-09-21T21:41:05.720Z,5.10
2022-09-21T21:46:08.917Z,4.57
2022-09-21T21:51:10.360Z,3.72
2022-09-21T21:56:15.025Z,5.40
2022-09-21T22:01:22.306Z,4.35
2022-09-21T22:06:25.084Z,8.07
2022-09-21T22:11:29.021Z,5.18
2022-09-21T22:16:32.198Z,7.85
2022-09-21T22:21:41.825Z,5.07
2022-09-21T22:26:45.059Z,6.10
2022-09-21T22:31:48.829Z,7.82
2022-09-21T22:36:50.675Z,6.57
2022-09-21T22:41:52.083Z,7.15
2022-09-21T22:46:53.495Z,8.75
2022-09-21T22:51:54.947Z,5.68
2022-09-21T22:56:56.439Z,6.63
2022-09-21T23:01:57.840Z,6.25
2022-09-21T23:06:59.253Z,7.50
2022-09-21T23:12:00.949Z,6.60
2022-09-21T23:17:02.353Z,6.25
2022-09-21T23:22:03.760Z,7.95
2022-09-21T23:27:05.232Z,9.25
2022-09-21T23:32:06.680Z,7.03
2022-09-21T23:37:08.136Z,7.15
2022-09-21T23:42:09.707Z,6.63
2022-09-21T23:47:11.106Z,7.28
2022-09-21T23:52:12.503Z,9.23
2022-09-21T23:57:13.950Z,8.85
